Oregon, OH (43616)

5:14 PM EDT on July 04, 2015 (GMT -0400)
Oregon, Ohio. | | Change Station
CLOSE
Current Station
Personal Weather Station
Location: Oregon, OH
Elevation: 610 ft
Nearby Weather Stations

Elev 610 ft 41.63 °N, 83.45 °W | Updated 1 second ago

Clear
Clear
78.6 °F
Feels Like 79 °F
N
1.0
Wind Variable Wind from NE
Gusts 2.0 mph

Today
High -- | Low -- °F
--% Chance of Precip.
Yesterday
High -- | Low -- °F
Precip. -- in
6:04 AM 9:11 PM
Waning Gibbous, 90% visible
Pressure 30.00 in
Visibility 10.0 miles
Clouds Clear
Heat Index 79 °F
Dew Point 54 °F
Humidity 43%
Rainfall 0.00 in
Snow Depth Not available.
UV 1.8 out of 12
Pollen 4.00 out of 12
Air Quality Not available.
Flu Activity Not available.
METAR KTDZ 042053Z AUTO 26004KT 10SM CLR 26/10 A3001 RMK AO2 SLP158 T02560100 58001 $

More Conditions Fewer Conditions

Pressure 30.00 in
Visibility 10.0 miles
Clouds Clear
Heat Index 79 °F
Dew Point 54 °F
Humidity 43%
Rainfall 0.00 in
Snow Depth Not available.
UV 1.8 out of 12
Pollen 4.00 out of 12
Air Quality Not available.
Flu Activity Not available.
METAR KTDZ 042053Z AUTO 26004KT 10SM CLR 26/10 A3001 RMK AO2 SLP158 T02560100 58001 $

More Conditions Fewer Conditions

10-Day Weather Forecast

×

Almanac

Astronomy

Jul. 04, 2015 Rise Set
Actual Time
Civil Twilight
Nautical Twilight
Astronomical Twilight
Moon
Length of Visible Light
Length of Day
Tomorrow will be .
, % of the Moon is Illuminated

Today's Extremes

State Highs State Lows

Community

WunderPhotos

Upload Photos

1,835,105 photos uploaded!

WunderBlogs® & News

Nearby

Air Quality

  Air Quality AQ Index Pollutant
Not available.

Snow Depth

Station Depth Elevation

Earthquake Activity

City Distance Mag. Time & Date
Minimum magnitude displayed is 2.5.

Coastal Water Temperatures

Place Temperature

Stations

Nearby Weather Stations

Station Location Temp. Windchill Dew Point Humidity Wind Precip. Elev Updated Type